Time;durP1;ratioP1;P1;durP2;ratioP2;P2;SDS_P1;SDS_P2;PMS_P1;PMS_P2;Temp;Humidity;BMP_temperature;BMP_pressure;BME280_temperature;BME280_humidity;BME280_pressure;Samples;Min_cycle;Max_cycle;Signal;HPM_P1;HPM_P2
2022/01/28 00:02:11;;;;;;;13.25;3.00;;;5.20;99.90;;;;;;4991084;28;20050;-80
2022/01/28 00:04:37;;;;;;;17.25;3.70;;;5.20;99.90;;;;;;4999751;28;20065;-80
2022/01/28 00:07:02;;;;;;;15.90;2.92;;;5.30;99.90;;;;;;4987724;28;20034;-80
2022/01/28 00:09:28;;;;;;;16.48;2.95;;;5.30;99.90;;;;;;4991625;28;20476;-80
2022/01/28 00:11:54;;;;;;;17.58;3.17;;;5.30;99.90;;;;;;4985277;28;20041;-80
2022/01/28 00:14:28;;;;;;;14.40;2.90;;;5.30;99.90;;;;;;5003551;28;20398;-80
2022/01/28 00:20:24;;;;;;;19.17;3.35;;;5.20;99.90;;;;;;4996872;28;20531;-80
2022/01/28 00:38:51;;;;;;;16.17;2.78;;;5.20;99.90;;;;;;5006371;28;20065;-80
2022/01/28 00:41:16;;;;;;;11.10;2.70;;;5.20;99.90;;;;;;5001580;28;20034;-80
2022/01/28 00:43:42;;;;;;;14.55;3.50;;;5.20;99.90;;;;;;4996086;28;20461;-80
2022/01/28 00:46:08;;;;;;;9.73;3.03;;;5.20;99.90;;;;;;4989832;28;20034;-80
2022/01/28 00:48:34;;;;;;;20.38;2.67;;;5.20;99.90;;;;;;4996272;28;20037;-80
2022/01/28 00:51:00;;;;;;;16.92;2.88;;;5.20;99.90;;;;;;4975687;28;20200;-80
2022/01/28 00:53:26;;;;;;;12.07;2.97;;;5.20;99.90;;;;;;4973712;28;20038;-80
2022/01/28 00:55:55;;;;;;;15.45;3.13;;;5.20;99.90;;;;;;4981897;28;20042;-80
2022/01/28 00:58:21;;;;;;;9.50;2.85;;;5.30;99.90;;;;;;4984840;28;20044;-80
2022/01/28 01:00:47;;;;;;;24.92;3.53;;;5.30;99.90;;;;;;4980074;28;20040;-80
2022/01/28 01:03:13;;;;;;;15.30;2.80;;;5.20;99.90;;;;;;4996273;28;20038;-80
2022/01/28 01:05:51;;;;;;;15.93;3.22;;;5.20;99.90;;;;;;4988753;28;20753;-80
2022/01/28 01:08:19;;;;;;;9.85;2.95;;;5.40;99.90;;;;;;4976330;28;20042;-80
2022/01/28 01:10:46;;;;;;;17.38;3.20;;;5.50;99.90;;;;;;4979178;28;20038;-80
2022/01/28 01:13:12;;;;;;;17.85;2.90;;;5.40;99.90;;;;;;4974839;28;20041;-80
2022/01/28 01:15:42;;;;;;;12.68;3.10;;;5.50;99.90;;;;;;4974012;28;20061;-80
2022/01/28 01:23:28;;;;;;;16.88;3.08;;;5.50;99.90;;;;;;4989935;28;20120;-80
2022/01/28 01:28:22;;;;;;;15.77;3.30;;;5.50;99.90;;;;;;4995340;28;20417;-81
2022/01/28 01:30:48;;;;;;;20.70;3.33;;;5.50;99.90;;;;;;4980691;28;20426;-80
2022/01/28 01:33:16;;;;;;;20.40;4.32;;;5.50;99.90;;;;;;5001555;28;20041;-80
2022/01/28 01:35:42;;;;;;;18.52;3.67;;;5.50;99.90;;;;;;4996932;28;20070;-80
2022/01/28 01:38:10;;;;;;;12.20;3.00;;;5.60;99.90;;;;;;4976931;28;20081;-80
2022/01/28 01:40:52;;;;;;;16.00;3.17;;;5.60;99.90;;;;;;4995361;28;20125;-80
2022/01/28 01:43:39;;;;;;;13.48;3.65;;;5.30;99.90;;;;;;4988475;28;20042;-80
2022/01/28 01:54:01;;;;;;;20.00;3.65;;;5.30;99.90;;;;;;4996685;28;20041;-80
2022/01/28 01:56:28;;;;;;;19.38;4.35;;;5.20;99.90;;;;;;4984261;28;20046;-80
2022/01/28 01:58:56;;;;;;;23.23;4.20;;;5.10;99.90;;;;;;4995299;28;20065;-79
2022/01/28 02:01:21;;;;;;;22.42;4.50;;;5.20;99.90;;;;;;4987005;28;20125;-80
2022/01/28 02:03:48;;;;;;;21.77;4.97;;;5.30;99.90;;;;;;4995776;28;20175;-80
2022/01/28 02:06:17;;;;;;;21.63;4.65;;;5.30;99.90;;;;;;5005246;28;20141;-80
2022/01/28 02:08:44;;;;;;;27.70;4.30;;;5.40;99.90;;;;;;4990440;28;20449;-80
2022/01/28 02:11:09;;;;;;;19.15;3.55;;;5.40;99.90;;;;;;4987613;28;20520;-80
2022/01/28 02:13:37;;;;;;;18.67;3.70;;;5.40;99.90;;;;;;4991999;28;20148;-80
2022/01/28 02:16:03;;;;;;;26.38;3.85;;;5.40;99.90;;;;;;4978240;28;20365;-80
2022/01/28 02:18:29;;;;;;;23.20;5.20;;;5.50;99.90;;;;;;4985671;28;20045;-80
2022/01/28 02:21:02;;;;;;;24.02;4.30;;;5.50;99.90;;;;;;4990012;28;20042;-80
2022/01/28 02:23:28;;;;;;;26.00;4.68;;;5.50;99.90;;;;;;4986202;28;20093;-80
2022/01/28 02:25:57;;;;;;;26.38;5.30;;;5.50;99.90;;;;;;4975179;28;20034;-80
2022/01/28 02:28:24;;;;;;;24.25;4.20;;;5.50;99.90;;;;;;4987136;28;20664;-80
2022/01/28 02:30:50;;;;;;;21.27;5.22;;;5.50;99.90;;;;;;4990224;28;20904;-80
2022/01/28 02:33:17;;;;;;;22.65;4.55;;;5.50;99.90;;;;;;5001435;28;20042;-80
2022/01/28 02:35:44;;;;;;;29.27;4.85;;;5.50;99.90;;;;;;4986087;28;20124;-80
2022/01/28 02:38:12;;;;;;;22.65;4.38;;;5.60;99.90;;;;;;4982510;28;20126;-80
2022/01/28 02:40:39;;;;;;;28.77;4.43;;;5.60;99.90;;;;;;4976715;28;20569;-80
2022/01/28 02:43:27;;;;;;;20.70;3.85;;;5.60;99.90;;;;;;4988128;28;20034;-80
2022/01/28 02:45:55;;;;;;;30.98;4.78;;;5.60;99.90;;;;;;4973722;28;20069;-80
2022/01/28 02:48:27;;;;;;;25.25;4.60;;;5.60;99.90;;;;;;4979039;28;20347;-80
2022/01/28 02:53:25;;;;;;;22.15;4.18;;;5.70;99.90;;;;;;4988089;28;20044;-80
2022/01/28 02:55:59;;;;;;;17.95;4.20;;;5.70;99.90;;;;;;4978964;28;20030;-80
2022/01/28 02:58:25;;;;;;;17.48;3.83;;;5.80;99.90;;;;;;4975992;28;20034;-80
2022/01/28 03:00:57;;;;;;;21.17;4.45;;;5.80;99.90;;;;;;4985543;28;20034;-80
2022/01/28 03:03:23;;;;;;;19.42;4.60;;;5.80;99.90;;;;;;4985837;28;20080;-80
2022/01/28 03:05:53;;;;;;;24.17;3.72;;;5.80;99.90;;;;;;5003146;28;20038;-80
2022/01/28 03:08:23;;;;;;;25.33;4.30;;;5.80;99.90;;;;;;4982878;28;20035;-80
2022/01/28 03:13:31;;;;;;;21.35;5.05;;;5.90;99.90;;;;;;5011069;28;20046;-80
2022/01/28 03:16:11;;;;;;;13.98;3.75;;;5.90;99.90;;;;;;4987409;28;20563;-80
2022/01/28 03:18:59;;;;;;;18.80;3.75;;;5.80;99.90;;;;;;4984159;28;20037;-80
2022/01/28 03:23:54;;;;;;;21.42;4.43;;;5.80;99.90;;;;;;4993441;28;20446;-80
2022/01/28 03:26:21;;;;;;;25.95;4.65;;;5.70;99.90;;;;;;4969909;28;20041;-80
2022/01/28 03:28:46;;;;;;;21.55;3.50;;;5.80;99.90;;;;;;4974939;28;20152;-80
2022/01/28 03:31:12;;;;;;;20.05;4.38;;;5.80;99.90;;;;;;4988978;28;20129;-80
2022/01/28 03:33:38;;;;;;;23.98;4.65;;;5.70;99.90;;;;;;4992408;28;20120;-80
2022/01/28 03:36:07;;;;;;;17.52;3.35;;;5.80;99.90;;;;;;4980913;28;20042;-80
2022/01/28 03:38:33;;;;;;;13.98;3.97;;;5.70;99.90;;;;;;4991189;28;20058;-80
2022/01/28 03:40:59;;;;;;;18.15;3.70;;;5.60;99.90;;;;;;4993014;28;20042;-80
2022/01/28 03:43:25;;;;;;;17.90;3.70;;;5.60;99.90;;;;;;4987544;28;20046;-80
2022/01/28 03:45:50;;;;;;;23.30;3.78;;;5.50;99.90;;;;;;4991574;28;20029;-80
2022/01/28 03:48:16;;;;;;;22.90;4.45;;;5.50;99.90;;;;;;4990649;28;20038;-80
2022/01/28 03:50:41;;;;;;;19.90;3.75;;;5.50;99.90;;;;;;4993921;28;20042;-80
2022/01/28 03:53:08;;;;;;;17.48;3.97;;;5.50;99.90;;;;;;4974239;28;20025;-80
2022/01/28 03:55:35;;;;;;;14.02;3.03;;;5.50;99.90;;;;;;4986186;28;20042;-80
2022/01/28 03:58:01;;;;;;;19.52;4.45;;;5.50;99.90;;;;;;4989144;28;20034;-80
2022/01/28 04:00:29;;;;;;;22.60;3.90;;;5.40;99.90;;;;;;4994101;28;20405;-79
2022/01/28 04:03:10;;;;;;;17.83;3.97;;;5.40;99.90;;;;;;4984990;28;20657;-79
2022/01/28 04:13:31;;;;;;;20.58;4.03;;;5.30;99.90;;;;;;5013790;28;20045;-80
2022/01/28 04:18:25;;;;;;;16.77;4.05;;;5.20;99.90;;;;;;4993481;28;20046;-79
2022/01/28 04:20:51;;;;;;;17.70;3.75;;;5.30;99.90;;;;;;4993624;28;20038;-80
2022/01/28 04:23:18;;;;;;;26.08;5.05;;;5.20;99.90;;;;;;4990535;28;20509;-80
2022/01/28 04:25:44;;;;;;;18.65;4.55;;;5.20;99.90;;;;;;4994823;28;20117;-80
2022/01/28 04:28:10;;;;;;;21.63;3.97;;;5.20;99.90;;;;;;4985642;28;20044;-80
2022/01/28 04:30:35;;;;;;;20.33;4.60;;;5.20;99.90;;;;;;4980348;28;20394;-79
2022/01/28 04:33:01;;;;;;;23.23;4.85;;;5.10;99.90;;;;;;4983501;28;20154;-80
2022/01/28 04:35:27;;;;;;;22.98;4.47;;;5.10;99.90;;;;;;4981489;28;20069;-80
2022/01/28 04:38:08;;;;;;;25.80;4.72;;;5.30;99.90;;;;;;4982640;28;20041;-80
2022/01/28 04:40:41;;;;;;;19.35;4.80;;;5.20;99.90;;;;;;4989441;28;20520;-80
2022/01/28 04:43:15;;;;;;;27.85;4.20;;;5.20;99.90;;;;;;4999210;28;20127;-80
2022/01/28 04:48:29;;;;;;;26.13;3.65;;;5.20;99.90;;;;;;4992151;28;20412;-80
2022/01/28 04:56:51;;;;;;;24.42;4.25;;;5.20;99.90;;;;;;4986163;28;20609;-80
2022/01/28 05:07:27;;;;;;;21.25;4.78;;;5.20;99.90;;;;;;4996870;28;20266;-80
2022/01/28 05:28:21;;;;;;;22.40;3.80;;;4.70;99.90;;;;;;4990986;28;20049;-80
2022/01/28 05:30:46;;;;;;;22.60;4.38;;;4.60;99.90;;;;;;4997461;28;20038;-80
2022/01/28 05:33:12;;;;;;;16.30;3.42;;;4.60;99.90;;;;;;4986666;28;20096;-80
2022/01/28 05:35:37;;;;;;;25.77;4.20;;;4.50;99.90;;;;;;4992076;28;20333;-80
2022/01/28 05:38:03;;;;;;;26.63;4.47;;;4.50;99.90;;;;;;4988503;28;20046;-80
2022/01/28 05:40:29;;;;;;;19.92;4.82;;;4.60;99.90;;;;;;4987994;28;20496;-80
2022/01/28 05:42:54;;;;;;;16.40;4.05;;;4.50;99.90;;;;;;4984624;28;20396;-80
2022/01/28 05:45:20;;;;;;;20.23;3.22;;;4.70;99.90;;;;;;4992724;28;20069;-80
2022/01/28 05:47:46;;;;;;;23.60;5.03;;;4.70;99.90;;;;;;5005036;28;20367;-80
2022/01/28 05:50:12;;;;;;;20.20;4.38;;;4.70;99.90;;;;;;4982458;28;20037;-79
2022/01/28 05:52:38;;;;;;;27.17;4.10;;;4.70;99.90;;;;;;4990513;28;20053;-80
2022/01/28 05:55:05;;;;;;;15.50;3.42;;;4.70;99.90;;;;;;4987466;28;20040;-80
2022/01/28 05:57:30;;;;;;;16.63;3.85;;;4.80;99.90;;;;;;4981779;28;20041;-80
2022/01/28 05:59:56;;;;;;;21.88;4.00;;;4.80;99.90;;;;;;4976588;28;20047;-80
2022/01/28 06:02:22;;;;;;;21.73;4.13;;;4.90;99.90;;;;;;4974880;28;20038;-80
2022/01/28 06:04:47;;;;;;;21.77;4.10;;;5.00;99.90;;;;;;4979844;28;20117;-80
2022/01/28 06:07:13;;;;;;;21.33;3.75;;;5.10;99.90;;;;;;4979403;28;20070;-80
2022/01/28 06:09:39;;;;;;;26.50;4.07;;;5.10;99.90;;;;;;4978286;28;20393;-80
2022/01/28 06:12:05;;;;;;;20.10;3.45;;;5.20;99.90;;;;;;4987240;28;20117;-80
2022/01/28 06:14:31;;;;;;;20.88;4.13;;;5.20;99.90;;;;;;4976822;28;20077;-79
2022/01/28 06:16:56;;;;;;;24.73;4.68;;;5.20;99.90;;;;;;4976007;28;20292;-79
2022/01/28 06:19:22;;;;;;;26.25;4.28;;;5.20;99.90;;;;;;4977396;28;20686;-80
2022/01/28 06:21:48;;;;;;;23.33;4.45;;;5.30;99.90;;;;;;4991598;28;20321;-79
2022/01/28 06:24:13;;;;;;;18.45;3.60;;;5.30;99.90;;;;;;4980040;28;20043;-80
2022/01/28 06:26:40;;;;;;;20.95;4.57;;;5.30;99.90;;;;;;4977562;28;20450;-80
2022/01/28 06:29:06;;;;;;;19.52;3.25;;;5.30;99.90;;;;;;4976061;28;20033;-80
2022/01/28 06:31:32;;;;;;;26.15;4.70;;;5.30;99.90;;;;;;4971123;28;20100;-80
2022/01/28 06:33:58;;;;;;;27.33;4.18;;;5.40;99.90;;;;;;4981802;28;20045;-80
2022/01/28 06:36:23;;;;;;;19.85;4.50;;;5.30;99.90;;;;;;4973348;28;20097;-80
2022/01/28 06:38:49;;;;;;;19.08;4.00;;;5.30;99.90;;;;;;4975719;28;20143;-80
2022/01/28 06:41:15;;;;;;;21.17;3.90;;;5.30;99.90;;;;;;4976523;28;20453;-80
2022/01/28 06:43:41;;;;;;;25.00;3.67;;;5.30;99.90;;;;;;4990810;28;20440;-80
2022/01/28 06:46:07;;;;;;;24.30;4.55;;;5.20;99.90;;;;;;4989010;28;20088;-80
2022/01/28 06:48:32;;;;;;;23.45;4.28;;;5.30;99.90;;;;;;5001299;28;20064;-80
2022/01/28 06:50:58;;;;;;;20.85;4.45;;;5.30;99.90;;;;;;4982452;28;20046;-80
2022/01/28 06:53:24;;;;;;;24.50;4.32;;;5.20;99.90;;;;;;4993585;28;20034;-80
2022/01/28 06:55:50;;;;;;;18.77;3.63;;;5.20;99.90;;;;;;4995088;28;20041;-80
2022/01/28 06:58:16;;;;;;;24.23;4.78;;;5.10;99.90;;;;;;4990697;28;20045;-80
2022/01/28 07:00:41;;;;;;;17.42;3.55;;;5.10;99.90;;;;;;4989615;28;20038;-80
2022/01/28 07:03:10;;;;;;;23.92;4.30;;;5.00;99.90;;;;;;4993233;28;20030;-79
2022/01/28 07:05:36;;;;;;;21.60;4.35;;;5.00;99.90;;;;;;5015812;28;20041;-80
2022/01/28 07:08:02;;;;;;;24.17;4.03;;;4.90;99.90;;;;;;4982891;28;20038;-79
2022/01/28 07:10:28;;;;;;;19.52;4.20;;;4.90;99.90;;;;;;5000226;28;20065;-80
2022/01/28 07:12:57;;;;;;;26.80;4.55;;;4.90;99.90;;;;;;4976818;28;20064;-80
2022/01/28 07:15:25;;;;;;;20.73;4.03;;;4.80;99.90;;;;;;4983428;28;20042;-79
2022/01/28 07:18:03;;;;;;;20.15;4.40;;;4.90;99.90;;;;;;5009471;28;20152;-80
2022/01/28 07:20:30;;;;;;;25.52;3.97;;;4.80;99.90;;;;;;4999804;28;20042;-80
2022/01/28 07:22:56;;;;;;;24.17;4.38;;;4.80;99.90;;;;;;4984599;28;20048;-80
2022/01/28 07:25:22;;;;;;;16.27;3.53;;;4.80;99.90;;;;;;4977664;28;20248;-79
2022/01/28 07:27:48;;;;;;;24.20;4.07;;;4.80;99.90;;;;;;4987491;28;20125;-80
2022/01/28 07:30:14;;;;;;;23.45;4.93;;;4.80;99.90;;;;;;4990663;28;20049;-80
2022/01/28 07:32:40;;;;;;;24.92;4.60;;;4.80;99.90;;;;;;4983893;28;20125;-80
2022/01/28 07:35:06;;;;;;;28.30;5.28;;;4.70;99.90;;;;;;4996440;28;20462;-79
2022/01/28 07:37:32;;;;;;;22.65;3.60;;;4.80;99.90;;;;;;4989698;28;20100;-80
2022/01/28 07:39:58;;;;;;;19.15;4.05;;;4.80;99.90;;;;;;4978843;28;20052;-80
2022/01/28 07:42:25;;;;;;;21.15;3.58;;;4.80;99.90;;;;;;4974522;28;20034;-80
2022/01/28 07:44:51;;;;;;;22.75;4.18;;;4.80;99.90;;;;;;4982606;28;20030;-80
2022/01/28 07:47:17;;;;;;;29.50;4.97;;;4.80;99.90;;;;;;4989108;28;20428;-80
2022/01/28 07:49:42;;;;;;;30.27;4.60;;;4.70;99.90;;;;;;5004932;28;20092;-80
2022/01/28 07:52:08;;;;;;;25.25;5.05;;;4.70;99.90;;;;;;4999442;28;20667;-80
2022/01/28 07:54:34;;;;;;;21.42;3.95;;;4.70;99.90;;;;;;4972524;28;20127;-80
2022/01/28 07:57:01;;;;;;;19.70;3.78;;;4.70;99.90;;;;;;4991671;28;20038;-80
2022/01/28 07:59:26;;;;;;;21.50;3.47;;;4.70;99.90;;;;;;5008321;28;20044;-80
2022/01/28 08:01:52;;;;;;;29.52;4.65;;;4.60;99.90;;;;;;4998970;28;20049;-80
2022/01/28 08:04:18;;;;;;;24.45;4.50;;;4.60;99.90;;;;;;5001167;28;20065;-80
2022/01/28 08:06:43;;;;;;;23.52;4.47;;;4.70;99.90;;;;;;4993112;28;20514;-80
2022/01/28 08:09:09;;;;;;;20.33;4.32;;;4.70;99.90;;;;;;4988352;28;20694;-80
2022/01/28 08:11:35;;;;;;;24.73;4.05;;;4.80;99.90;;;;;;4981668;28;20115;-80
2022/01/28 08:14:02;;;;;;;19.58;3.55;;;4.80;99.90;;;;;;4992957;28;20057;-80
2022/01/28 08:16:28;;;;;;;20.13;3.90;;;4.90;99.90;;;;;;4989255;28;20392;-80
2022/01/28 08:18:54;;;;;;;26.05;4.00;;;4.80;99.90;;;;;;5006760;28;20057;-80
2022/01/28 08:21:19;;;;;;;22.77;4.03;;;4.90;99.90;;;;;;4980606;28;20381;-80
2022/01/28 08:23:45;;;;;;;27.73;4.13;;;4.90;99.90;;;;;;4988412;28;20092;-80
2022/01/28 08:26:11;;;;;;;21.05;4.20;;;5.00;99.90;;;;;;4988966;28;20160;-80
2022/01/28 08:28:41;;;;;;;20.55;3.53;;;5.10;99.90;;;;;;4988457;28;20395;-79
2022/01/28 08:31:08;;;;;;;25.23;3.75;;;5.20;99.90;;;;;;4977906;28;20049;-80
2022/01/28 08:33:34;;;;;;;23.98;4.28;;;5.20;99.90;;;;;;4971570;28;20061;-80
2022/01/28 08:36:01;;;;;;;23.00;4.22;;;5.20;99.90;;;;;;4986430;28;20123;-80
2022/01/28 08:38:36;;;;;;;20.50;3.72;;;5.30;99.90;;;;;;4985508;28;20435;-80
2022/01/28 08:41:02;;;;;;;;;;;5.30;99.90;;;;;;4980633;28;20093;-80
2022/01/28 08:43:28;;;;;;;16.67;3.83;;;5.30;99.90;;;;;;4992082;28;20001;-79
2022/01/28 08:45:55;;;;;;;20.67;4.00;;;5.40;99.90;;;;;;4981634;28;20081;-80
2022/01/28 08:48:20;;;;;;;18.83;3.33;;;5.40;99.90;;;;;;5009686;28;20033;-80
2022/01/28 08:50:46;;;;;;;22.60;4.75;;;5.50;99.90;;;;;;4998009;28;20595;-80
2022/01/28 08:53:12;;;;;;;19.58;5.43;;;5.60;99.90;;;;;;4987717;28;20934;-80
2022/01/28 08:55:38;;;;;;;24.00;4.15;;;5.50;99.90;;;;;;4972712;28;20030;-80
2022/01/28 08:58:06;;;;;;;24.67;4.10;;;5.60;99.90;;;;;;4987748;28;20049;-80
2022/01/28 09:00:31;;;;;;;21.33;3.88;;;5.60;99.90;;;;;;4983501;28;20575;-80
2022/01/28 09:02:57;;;;;;;23.50;4.32;;;5.60;99.90;;;;;;4990132;28;20073;-80
2022/01/28 09:05:23;;;;;;;24.02;4.40;;;5.70;99.90;;;;;;4989433;28;20045;-80
2022/01/28 09:07:49;;;;;;;23.92;4.38;;;5.70;99.90;;;;;;4987452;28;20513;-80
2022/01/28 09:10:18;;;;;;;21.25;4.22;;;5.70;99.90;;;;;;4978452;28;20042;-80
2022/01/28 09:15:41;;;;;;;21.38;4.28;;;5.80;99.90;;;;;;4981162;28;20618;-80
2022/01/28 09:18:11;;;;;;;26.45;4.18;;;5.90;99.90;;;;;;4999105;28;20064;-80
2022/01/28 09:20:38;;;;;;;22.33;3.55;;;5.90;99.90;;;;;;4990008;28;20289;-80
2022/01/28 09:23:04;;;;;;;19.15;3.78;;;6.00;99.90;;;;;;4978843;28;20050;-80
2022/01/28 09:25:30;;;;;;;29.00;4.47;;;6.00;99.90;;;;;;4999144;28;20072;-80
2022/01/28 09:27:56;;;;;;;22.90;5.20;;;6.10;99.90;;;;;;4980787;28;20053;-80
2022/01/28 09:30:22;;;;;;;24.80;4.10;;;6.20;99.90;;;;;;4999749;28;20096;-80
2022/01/28 09:32:48;;;;;;;21.92;3.88;;;6.30;99.90;;;;;;4986533;28;20041;-80
2022/01/28 09:35:15;;;;;;;21.73;4.53;;;6.30;99.90;;;;;;5000568;28;20443;-80
2022/01/28 09:37:41;;;;;;;20.00;3.78;;;6.40;99.90;;;;;;4996889;28;20152;-80
2022/01/28 09:40:08;;;;;;;19.30;4.25;;;6.50;99.90;;;;;;4975977;28;20195;-80
2022/01/28 09:42:37;;;;;;;26.83;4.60;;;6.60;99.90;;;;;;4998395;28;20045;-80
2022/01/28 09:45:04;;;;;;;20.83;4.82;;;6.50;99.90;;;;;;4991430;28;20056;-80
2022/01/28 09:47:31;;;;;;;21.92;4.05;;;6.70;99.90;;;;;;5001785;28;20044;-80
2022/01/28 09:49:58;;;;;;;25.23;5.60;;;6.70;99.90;;;;;;4987018;28;20053;-80
2022/01/28 09:52:23;;;;;;;24.92;4.40;;;6.70;99.90;;;;;;4997390;28;20057;-79
2022/01/28 09:54:49;;;;;;;21.08;4.20;;;6.70;99.90;;;;;;4999285;28;20038;-80
2022/01/28 09:57:19;;;;;;;22.83;3.70;;;6.70;99.90;;;;;;4993574;28;20038;-80
2022/01/28 09:59:46;;;;;;;19.85;4.85;;;6.70;99.90;;;;;;5006155;28;20257;-80
2022/01/28 10:02:12;;;;;;;27.58;4.40;;;6.70;99.90;;;;;;4994138;28;20042;-80
2022/01/28 10:04:38;;;;;;;19.50;3.45;;;6.70;99.90;;;;;;4990390;28;20045;-80
2022/01/28 10:07:17;;;;;;;26.42;4.80;;;6.70;99.90;;;;;;4989911;28;20377;-80
2022/01/28 10:10:00;;;;;;;21.58;3.95;;;6.70;99.90;;;;;;4990651;28;20034;-80
2022/01/28 10:12:50;;;;;;;21.83;4.70;;;6.70;99.90;;;;;;5002018;28;20629;-80
2022/01/28 10:15:20;;;;;;;21.27;4.05;;;6.70;99.90;;;;;;4998700;28;20052;-80
2022/01/28 10:17:54;;;;;;;23.67;4.18;;;6.80;99.90;;;;;;4997283;28;20384;-80
2022/01/28 10:20:21;;;;;;;22.50;4.13;;;6.80;99.90;;;;;;4983976;28;20044;-80
2022/01/28 10:22:57;;;;;;;20.67;3.95;;;6.80;99.90;;;;;;4976536;28;20037;-79
2022/01/28 10:25:37;;;;;;;25.63;4.32;;;6.80;99.90;;;;;;4984896;28;20385;-80
2022/01/28 10:28:06;;;;;;;22.88;4.28;;;6.90;99.90;;;;;;4977816;28;20132;-80
2022/01/28 10:30:41;;;;;;;24.52;4.80;;;6.80;99.90;;;;;;4997176;28;20042;-79
2022/01/28 10:33:17;;;;;;;24.38;4.32;;;6.80;99.90;;;;;;5002172;28;20140;-80
2022/01/28 10:35:57;;;;;;;24.58;4.75;;;6.90;99.90;;;;;;4997328;28;20033;-80
2022/01/28 10:38:34;;;;;;;21.67;4.55;;;7.10;99.90;;;;;;4997307;28;20054;-80
2022/01/28 10:41:20;;;;;;;18.65;4.25;;;7.00;99.90;;;;;;4995601;28;20038;-80
2022/01/28 10:43:48;;;;;;;25.73;4.35;;;7.00;99.90;;;;;;5015150;28;20038;-80
2022/01/28 10:46:31;;;;;;;18.58;3.95;;;7.10;99.90;;;;;;4979154;28;20034;-80
2022/01/28 10:49:01;;;;;;;16.75;5.13;;;7.10;99.90;;;;;;5007875;28;20045;-80
2022/01/28 10:51:40;;;;;;;23.70;4.20;;;7.20;99.90;;;;;;5003930;28;20188;-80
2022/01/28 10:54:14;;;;;;;16.98;3.72;;;7.30;99.90;;;;;;4994863;28;20196;-80
2022/01/28 10:56:50;;;;;;;22.05;4.25;;;7.20;99.90;;;;;;4981657;28;20052;-80
2022/01/28 10:59:18;;;;;;;17.83;3.80;;;7.30;99.90;;;;;;5000011;28;20038;-80
2022/01/28 11:01:45;;;;;;;20.67;4.10;;;7.30;99.90;;;;;;5012909;28;20159;-80
2022/01/28 11:04:12;;;;;;;18.30;4.88;;;7.30;99.90;;;;;;5005353;28;20038;-80
2022/01/28 11:06:40;;;;;;;21.08;4.60;;;7.40;99.90;;;;;;4980760;28;20565;-80
2022/01/28 11:09:08;;;;;;;22.17;4.57;;;7.40;99.90;;;;;;4976707;28;20117;-80
2022/01/28 11:11:34;;;;;;;28.58;4.15;;;7.40;99.90;;;;;;4983996;28;20505;-80
2022/01/28 11:14:00;;;;;;;25.90;3.88;;;7.40;99.90;;;;;;4978711;28;20159;-80
2022/01/28 11:16:26;;;;;;;19.73;3.67;;;7.50;99.90;;;;;;4982224;28;20108;-80
2022/01/28 11:18:53;;;;;;;20.83;3.72;;;7.60;99.90;;;;;;4996555;28;20263;-80
2022/01/28 11:21:27;;;;;;;20.20;4.00;;;7.50;99.90;;;;;;5009598;28;20049;-80
2022/01/28 11:24:01;;;;;;;19.47;3.17;;;7.60;99.90;;;;;;4995519;28;20100;-80
2022/01/28 11:26:49;;;;;;;18.58;3.65;;;7.50;99.90;;;;;;5009965;28;20377;-80
2022/01/28 11:29:26;;;;;;;14.88;3.90;;;7.40;99.90;;;;;;5014254;28;20507;-80
2022/01/28 11:31:52;;;;;;;21.33;4.32;;;7.50;99.90;;;;;;5000285;28;20421;-80
2022/01/28 11:34:32;;;;;;;23.13;3.70;;;7.40;99.90;;;;;;5001570;28;20477;-80
2022/01/28 11:37:18;;;;;;;20.70;3.83;;;7.30;99.90;;;;;;5015057;28;20038;-80
2022/01/28 11:39:46;;;;;;;33.85;4.45;;;7.20;99.90;;;;;;5009433;28;20168;-80
2022/01/28 11:42:34;;;;;;;17.15;3.92;;;7.20;99.90;;;;;;5009066;28;20118;-80
2022/01/28 11:45:10;;;;;;;21.35;4.13;;;7.20;99.90;;;;;;4974768;28;20447;-80
2022/01/28 11:47:51;;;;;;;18.15;4.00;;;7.00;99.90;;;;;;5008981;28;20277;-80
2022/01/28 11:50:19;;;;;;;19.73;3.88;;;7.00;99.90;;;;;;4993573;28;20591;-80
2022/01/28 11:52:53;;;;;;;17.90;3.03;;;7.00;99.90;;;;;;4990501;28;20065;-80
2022/01/28 11:55:28;;;;;;;;;;;6.90;99.90;;;;;;4985504;28;20046;-80
2022/01/28 11:58:00;;;;;;;22.08;4.30;;;6.90;99.90;;;;;;4998739;28;20872;-80
2022/01/28 12:00:38;;;;;;;16.35;4.40;;;7.00;99.90;;;;;;4978705;28;20574;-80
2022/01/28 12:03:24;;;;;;;23.13;3.15;;;7.20;99.90;;;;;;4981661;28;20432;-80
2022/01/28 12:05:51;;;;;;;21.42;3.63;;;7.20;99.90;;;;;;4997092;28;20477;-80
2022/01/28 12:08:18;;;;;;;19.50;3.65;;;7.20;99.90;;;;;;4979994;28;20109;-80
2022/01/28 12:10:46;;;;;;;22.38;3.80;;;7.40;99.90;;;;;;4972327;28;20046;-80
2022/01/28 12:13:16;;;;;;;21.30;4.13;;;7.50;99.90;;;;;;4986485;28;20050;-80
2022/01/28 12:16:11;;;;;;;15.63;3.40;;;7.60;99.90;;;;;;4984966;28;20073;-80
2022/01/28 12:18:46;;;;;;;18.50;5.33;;;7.60;99.90;;;;;;5005634;28;20069;-80
2022/01/28 12:21:16;;;;;;;20.42;4.10;;;7.50;99.90;;;;;;4974318;28;20042;-80
2022/01/28 12:23:44;;;;;;;22.35;4.20;;;7.60;99.90;;;;;;4982144;28;20033;-80
2022/01/28 12:26:13;;;;;;;18.33;3.92;;;7.70;99.90;;;;;;4977428;28;20568;-81
2022/01/28 12:28:46;;;;;;;24.88;4.50;;;7.60;99.90;;;;;;4997206;28;20045;-81
2022/01/28 12:31:27;;;;;;;20.75;3.55;;;7.60;99.90;;;;;;4992596;28;20049;-80
2022/01/28 12:33:55;;;;;;;21.60;4.20;;;7.60;99.90;;;;;;5015196;28;20053;-80
2022/01/28 12:36:23;;;;;;;18.17;3.80;;;7.50;99.90;;;;;;4990761;28;20395;-80
2022/01/28 12:41:29;;;;;;;25.48;4.10;;;7.60;99.90;;;;;;4991937;28;20042;-80
2022/01/28 12:43:55;;;;;;;16.77;3.95;;;7.70;99.90;;;;;;5005635;28;20046;-80
2022/01/28 12:46:23;;;;;;;20.58;4.15;;;7.70;99.90;;;;;;5001925;28;20052;-80
2022/01/28 12:48:51;;;;;;;18.95;3.92;;;7.70;99.90;;;;;;5013061;28;20088;-80
2022/01/28 12:51:21;;;;;;;14.68;3.20;;;7.80;99.90;;;;;;4994670;28;20135;-80
2022/01/28 12:53:49;;;;;;;17.30;3.80;;;7.70;99.90;;;;;;4989818;28;20373;-80
2022/01/28 12:56:29;;;;;;;19.23;4.00;;;7.90;99.90;;;;;;4989974;28;20030;-80
2022/01/28 12:58:54;;;;;;;23.30;4.00;;;8.30;99.90;;;;;;4975519;28;21211;-80
2022/01/28 13:01:20;;;;;;;14.40;3.20;;;8.20;99.90;;;;;;4988182;28;20038;-80
2022/01/28 13:03:56;;;;;;;16.73;3.60;;;8.30;99.90;;;;;;4982199;28;20053;-80
2022/01/28 13:09:09;;;;;;;14.90;3.05;;;8.30;99.90;;;;;;4986904;28;20478;-80
2022/01/28 13:11:43;;;;;;;14.02;3.13;;;8.00;99.90;;;;;;5002095;28;20049;-80
2022/01/28 13:14:10;;;;;;;24.42;4.00;;;7.90;99.90;;;;;;4989601;28;20079;-81
2022/01/28 13:16:42;;;;;;;15.88;3.30;;;7.70;99.90;;;;;;4988043;28;20035;-80
2022/01/28 13:19:10;;;;;;;18.17;3.65;;;7.50;99.90;;;;;;4981930;28;20133;-80
2022/01/28 13:21:37;;;;;;;18.85;3.67;;;7.40;99.90;;;;;;4993890;28;20084;-81
2022/01/28 13:24:17;;;;;;;20.35;3.78;;;7.40;99.90;;;;;;4979848;28;20091;-80
2022/01/28 13:27:07;;;;;;;16.02;3.42;;;7.40;99.90;;;;;;4988463;28;20038;-80
2022/01/28 13:29:45;;;;;;;18.35;3.67;;;7.40;99.90;;;;;;4992872;28;20080;-80
2022/01/28 13:32:12;;;;;;;13.20;2.90;;;7.60;99.90;;;;;;5015743;28;20329;-80
2022/01/28 13:34:48;;;;;;;23.13;4.10;;;7.70;99.90;;;;;;5004647;28;20046;-80
2022/01/28 13:37:33;;;;;;;16.80;3.58;;;7.80;99.90;;;;;;4982655;28;20042;-80
2022/01/28 13:40:00;;;;;;;13.35;3.30;;;7.90;99.90;;;;;;4985962;28;20124;-80
2022/01/28 13:42:26;;;;;;;19.35;4.05;;;8.00;99.90;;;;;;5004090;28;20049;-80
2022/01/28 13:44:52;;;;;;;14.48;3.45;;;8.10;99.90;;;;;;5009054;28;20443;-80
2022/01/28 13:47:21;;;;;;;11.38;2.40;;;8.20;99.90;;;;;;4976039;28;20073;-81
2022/01/28 13:49:57;;;;;;;18.13;3.30;;;8.20;99.90;;;;;;4991039;28;20073;-81
2022/01/28 13:52:40;;;;;;;20.73;3.10;;;8.40;99.90;;;;;;5011087;28;20560;-80
2022/01/28 13:55:35;;;;;;;18.77;3.22;;;8.50;99.90;;;;;;4990628;28;20517;-81
2022/01/28 13:58:02;;;;;;;11.32;3.65;;;8.40;99.90;;;;;;5007030;28;20048;-80
2022/01/28 14:00:46;;;;;;;13.77;2.83;;;8.30;99.90;;;;;;4992589;28;20099;-80
2022/01/28 14:03:22;;;;;;;20.85;3.08;;;8.10;99.90;;;;;;4991621;28;20048;-80
2022/01/28 14:05:51;;;;;;;14.27;3.25;;;8.10;99.90;;;;;;4983266;28;20485;-81
2022/01/28 14:08:44;;;;;;;18.15;3.15;;;8.10;99.90;;;;;;5000608;28;20449;-80
2022/01/28 14:11:27;;;;;;;15.98;3.17;;;8.00;99.90;;;;;;5010936;28;20172;-80
2022/01/28 14:14:06;;;;;;;23.05;3.30;;;7.90;99.90;;;;;;4984923;28;20046;-81
2022/01/28 14:16:32;;;;;;;19.55;3.22;;;8.10;99.90;;;;;;4996224;28;20065;-81
2022/01/28 14:18:57;;;;;;;15.10;3.08;;;8.10;99.90;;;;;;4966934;28;20053;-80
2022/01/28 14:21:23;;;;;;;15.88;3.17;;;8.10;99.90;;;;;;4982428;28;20038;-80
2022/01/28 14:23:50;;;;;;;12.45;2.88;;;8.10;99.90;;;;;;5006290;28;20029;-80
2022/01/28 14:26:16;;;;;;;18.92;3.17;;;8.00;99.90;;;;;;5011359;28;20092;-81
2022/01/28 14:31:24;;;;;;;15.65;3.33;;;7.90;99.90;;;;;;4989284;28;20104;-80
2022/01/28 14:33:50;;;;;;;12.60;2.97;;;7.80;99.90;;;;;;5002104;28;20046;-80
2022/01/28 14:36:16;;;;;;;19.23;3.25;;;7.60;99.90;;;;;;4972300;28;20042;-80
2022/01/28 14:38:46;;;;;;;17.80;2.90;;;7.60;99.90;;;;;;5001218;28;20057;-81